createdAt,value
2018-03-28T00:02:08.803Z,95124.31
2018-03-28T00:04:36.324Z,95134.43
2018-03-28T00:07:03.891Z,95126.97
2018-03-28T00:09:31.409Z,95126.31
2018-03-28T00:11:58.946Z,95124.03
2018-03-28T00:14:26.481Z,95133.21
2018-03-28T00:16:53.998Z,95122.44
2018-03-28T00:19:21.540Z,95122.02
2018-03-28T00:21:49.122Z,95120.53
2018-03-28T00:24:16.651Z,95119.70
2018-03-28T00:26:44.190Z,95110.52
2018-03-28T00:29:11.711Z,95124.25
2018-03-28T00:31:39.246Z,95125.28
2018-03-28T00:34:06.770Z,95128.11
2018-03-28T00:36:34.293Z,95125.84
2018-03-28T00:39:01.838Z,95107.56
2018-03-28T00:41:29.356Z,95117.64
2018-03-28T00:43:56.876Z,95129.97
2018-03-28T00:46:25.279Z,95116.16
2018-03-28T00:48:52.796Z,95108.50
2018-03-28T00:51:32.157Z,95102.13
2018-03-28T00:53:59.694Z,95120.55
2018-03-28T00:56:27.219Z,95124.28
2018-03-28T00:58:54.743Z,95125.73
2018-03-28T01:01:22.259Z,95129.52
2018-03-28T01:03:49.778Z,95125.73
2018-03-28T01:06:20.130Z,95123.77
2018-03-28T01:08:47.642Z,95120.59
2018-03-28T01:11:15.157Z,95110.45
2018-03-28T01:13:42.679Z,95111.77
2018-03-28T01:16:10.279Z,95099.63
2018-03-28T01:18:37.820Z,95103.89
2018-03-28T01:21:05.338Z,95079.91
2018-03-28T01:23:32.875Z,95085.91
2018-03-28T01:26:00.451Z,95082.44
2018-03-28T01:28:27.971Z,95092.03
2018-03-28T01:30:55.514Z,95099.11
2018-03-28T01:33:23.023Z,95060.66
2018-03-28T01:35:50.535Z,95083.69
2018-03-28T01:38:18.051Z,95089.61
2018-03-28T01:40:45.565Z,95084.33
2018-03-28T01:43:13.117Z,95089.39
2018-03-28T01:45:40.632Z,95095.49
2018-03-28T01:48:08.153Z,95084.97
2018-03-28T01:50:35.675Z,95077.48
2018-03-28T01:53:03.198Z,95079.56
2018-03-28T01:55:30.747Z,95076.02
2018-03-28T01:57:58.267Z,95071.41
2018-03-28T02:00:25.814Z,95069.83
2018-03-28T02:02:53.335Z,95076.70
2018-03-28T02:05:20.886Z,95075.65
2018-03-28T02:07:48.399Z,95073.47
2018-03-28T02:10:15.911Z,95072.95
2018-03-28T02:12:43.438Z,95071.14
2018-03-28T02:15:10.958Z,95073.30
2018-03-28T02:17:38.480Z,95074.36
2018-03-28T02:20:06.011Z,95071.64
2018-03-28T02:22:33.551Z,95069.17
2018-03-28T02:25:01.092Z,95071.95
2018-03-28T02:27:28.611Z,95063.27
2018-03-28T02:29:56.138Z,95059.45
2018-03-28T02:32:23.657Z,95070.92
2018-03-28T02:34:51.178Z,95069.37
2018-03-28T02:37:18.718Z,95049.44
2018-03-28T02:39:46.311Z,95074.52
2018-03-28T02:42:13.827Z,95075.14
2018-03-28T02:44:41.349Z,95070.03
2018-03-28T02:47:08.928Z,95052.36
2018-03-28T02:49:36.472Z,95065.52
2018-03-28T02:52:03.999Z,95065.39
2018-03-28T02:54:31.523Z,95070.67
2018-03-28T02:56:59.052Z,95066.47
2018-03-28T02:59:26.570Z,95060.48
2018-03-28T03:01:54.120Z,95073.03
2018-03-28T03:04:21.639Z,95069.05
2018-03-28T03:06:49.158Z,95070.92
2018-03-28T03:09:16.678Z,95068.95
2018-03-28T03:11:44.186Z,95071.98
2018-03-28T03:14:11.725Z,95069.18
2018-03-28T03:16:39.248Z,95067.34
2018-03-28T03:19:06.769Z,95069.91
2018-03-28T03:21:34.294Z,95079.53
2018-03-28T03:24:01.816Z,95086.47
2018-03-28T03:26:29.367Z,95077.97
2018-03-28T03:28:56.882Z,95075.30
2018-03-28T03:31:24.416Z,95081.23
2018-03-28T03:33:51.940Z,95078.78
2018-03-28T03:36:19.467Z,95086.39
2018-03-28T03:38:46.991Z,95069.95
2018-03-28T03:41:14.506Z,95076.36
2018-03-28T03:43:42.067Z,95078.03
2018-03-28T03:46:09.691Z,95077.48
2018-03-28T03:48:37.206Z,95079.23
2018-03-28T03:51:04.720Z,95078.18
2018-03-28T03:53:32.239Z,95078.59
2018-03-28T03:55:59.783Z,95075.41
2018-03-28T03:58:27.318Z,95072.44
2018-03-28T04:00:54.888Z,95069.13
2018-03-28T04:03:22.398Z,95074.68
2018-03-28T04:05:49.925Z,95080.40
2018-03-28T04:08:17.781Z,95078.30
2018-03-28T04:10:45.298Z,95080.25
2018-03-28T04:13:12.823Z,95077.92
2018-03-28T04:15:40.339Z,95081.66
2018-03-28T04:18:07.858Z,95084.00
2018-03-28T04:20:35.390Z,95084.00
2018-03-28T04:23:02.908Z,95080.50
2018-03-28T04:25:30.437Z,95079.69
2018-03-28T04:27:57.987Z,95090.23
2018-03-28T04:30:25.519Z,95071.89
2018-03-28T04:32:53.047Z,95091.75
2018-03-28T04:35:20.599Z,95086.48
2018-03-28T04:37:48.127Z,95084.63
2018-03-28T04:40:15.648Z,95082.53
2018-03-28T04:42:43.180Z,95082.22
2018-03-28T04:45:10.730Z,95095.09
2018-03-28T04:47:38.263Z,95098.71
2018-03-28T04:50:05.782Z,95082.87
2018-03-28T04:52:33.299Z,95102.16
2018-03-28T04:55:00.823Z,95103.45
2018-03-28T04:57:28.349Z,95107.53
2018-03-28T04:59:55.900Z,95105.88
2018-03-28T05:02:23.430Z,95109.49
2018-03-28T05:04:50.947Z,95112.56
2018-03-28T05:07:18.487Z,95113.59
2018-03-28T05:09:45.998Z,95115.83
2018-03-28T05:12:13.536Z,95115.23
2018-03-28T05:14:41.082Z,95115.36
2018-03-28T05:17:08.610Z,95118.96
2018-03-28T05:19:36.135Z,95114.97
2018-03-28T05:22:03.663Z,95121.39
2018-03-28T05:24:31.209Z,95114.66
2018-03-28T05:26:58.759Z,95127.08
2018-03-28T05:29:26.312Z,95117.42
2018-03-28T05:31:53.963Z,95122.70
2018-03-28T05:34:21.489Z,95131.89
2018-03-28T05:36:49.035Z,95129.73
2018-03-28T05:39:16.555Z,95127.32
2018-03-28T05:41:44.082Z,95114.02
2018-03-28T05:44:11.632Z,95122.10
2018-03-28T05:46:39.151Z,95119.66
2018-03-28T05:49:06.668Z,95117.33
2018-03-28T05:51:34.194Z,95127.00
2018-03-28T05:54:01.716Z,95121.41
2018-03-28T05:56:29.298Z,95128.30
2018-03-28T05:58:56.830Z,95111.61
2018-03-28T06:01:24.365Z,95123.87
2018-03-28T06:03:51.922Z,95119.45
2018-03-28T06:06:19.447Z,95120.71
2018-03-28T06:08:46.991Z,95121.77
2018-03-28T06:11:14.511Z,95113.56
2018-03-28T06:13:42.068Z,95111.38
2018-03-28T06:16:09.648Z,95099.56
2018-03-28T06:18:37.170Z,95111.00
2018-03-28T06:21:04.705Z,95113.45
2018-03-28T06:23:32.232Z,95107.15
2018-03-28T06:25:59.772Z,95111.42
2018-03-28T06:28:27.286Z,95106.63
2018-03-28T06:30:55.109Z,95112.76
2018-03-28T06:33:22.640Z,95097.44
2018-03-28T06:35:50.205Z,95093.70
2018-03-28T06:38:17.728Z,95102.59
2018-03-28T06:40:45.248Z,95113.31
2018-03-28T06:43:12.801Z,95108.44
2018-03-28T06:45:40.324Z,95115.42
2018-03-28T06:48:07.843Z,95114.42
2018-03-28T06:50:35.366Z,95115.68
2018-03-28T06:53:02.908Z,95117.39
2018-03-28T06:55:30.462Z,95117.90
2018-03-28T06:57:57.978Z,95120.48
2018-03-28T07:00:25.544Z,95120.72
2018-03-28T07:02:53.063Z,95121.46
2018-03-28T07:05:20.618Z,95108.39
2018-03-28T07:07:48.144Z,95115.97
2018-03-28T07:10:15.662Z,95106.84
2018-03-28T07:12:43.185Z,95116.81
2018-03-28T07:15:10.712Z,95126.41
2018-03-28T07:17:38.258Z,95123.58
2018-03-28T07:20:05.775Z,95125.88
2018-03-28T07:22:33.298Z,95127.00
2018-03-28T07:25:00.827Z,95127.69
2018-03-28T07:27:28.368Z,95126.69
2018-03-28T07:29:55.920Z,95124.05
2018-03-28T07:32:23.434Z,95124.20
2018-03-28T07:34:50.956Z,95128.20
2018-03-28T07:37:18.475Z,95133.16
2018-03-28T07:39:45.990Z,95130.22
2018-03-28T07:42:13.543Z,95132.69
2018-03-28T07:44:41.067Z,95138.13
2018-03-28T07:47:08.590Z,95149.02
2018-03-28T07:49:36.119Z,95133.21
2018-03-28T07:52:03.639Z,95139.75
2018-03-28T07:54:31.211Z,95120.04
2018-03-28T07:56:58.731Z,95126.80
2018-03-28T07:59:26.247Z,95128.92
2018-03-28T08:01:53.799Z,95129.87
2018-03-28T08:04:21.326Z,95133.45
2018-03-28T08:06:48.856Z,95136.56
2018-03-28T08:09:16.383Z,95142.23
2018-03-28T08:11:43.928Z,95134.84
2018-03-28T08:14:11.447Z,95143.94
2018-03-28T08:16:39.012Z,95133.84
2018-03-28T08:19:06.554Z,95128.05
2018-03-28T08:21:34.117Z,95133.45
2018-03-28T08:24:01.652Z,95133.85
2018-03-28T08:26:29.177Z,95130.45
2018-03-28T08:28:56.702Z,95129.80
2018-03-28T08:31:24.222Z,95119.20
2018-03-28T08:33:51.746Z,95128.89
2018-03-28T08:39:39.894Z,95139.21
2018-03-28T08:42:19.860Z,95124.62
2018-03-28T08:44:47.383Z,95116.26
2018-03-28T08:47:14.904Z,95116.43
2018-03-28T08:49:42.428Z,95114.07
2018-03-28T08:52:09.947Z,95112.59
2018-03-28T08:54:37.503Z,95109.81
2018-03-28T08:57:05.029Z,95116.22
2018-03-28T08:59:32.551Z,95116.07
2018-03-28T09:02:00.135Z,95109.80
2018-03-28T09:04:27.666Z,95111.33
2018-03-28T09:06:55.231Z,95104.61
2018-03-28T09:09:22.755Z,95105.77
2018-03-28T09:11:50.275Z,95104.36
2018-03-28T09:14:17.795Z,95100.46
2018-03-28T09:16:45.325Z,95096.07
2018-03-28T09:19:12.932Z,95095.03
2018-03-28T09:21:40.428Z,95092.77
2018-03-28T09:24:07.948Z,95084.72
2018-03-28T09:26:35.518Z,95059.38
2018-03-28T09:29:03.042Z,95084.00
2018-03-28T09:31:30.639Z,95076.44
2018-03-28T09:33:58.165Z,95085.92
2018-03-28T09:36:25.705Z,95099.09
2018-03-28T09:38:53.228Z,95076.31
2018-03-28T09:41:20.747Z,95072.69
2018-03-28T09:43:48.296Z,95070.98
2018-03-28T09:46:15.820Z,95073.94
2018-03-28T09:48:43.338Z,95067.61
2018-03-28T09:51:10.882Z,95061.86
2018-03-28T09:53:38.403Z,95066.98
2018-03-28T09:56:06.334Z,95053.67
2018-03-28T09:58:33.818Z,95053.94
2018-03-28T10:01:06.884Z,95046.53
2018-03-28T10:03:34.442Z,95029.69
2018-03-28T10:06:01.955Z,95043.91
2018-03-28T10:08:29.477Z,95040.51
2018-03-28T10:10:57.009Z,95047.37
2018-03-28T10:13:24.561Z,95046.22
2018-03-28T10:15:52.075Z,95040.88
2018-03-28T10:18:19.599Z,95043.88
2018-03-28T10:20:47.116Z,95040.69
2018-03-28T10:23:14.629Z,95034.67
2018-03-28T10:25:42.180Z,95031.64
2018-03-28T10:28:09.699Z,95025.70
2018-03-28T10:30:37.247Z,95024.83
2018-03-28T10:33:04.762Z,95027.28
2018-03-28T10:35:32.289Z,95014.30
2018-03-28T10:37:59.816Z,95008.03
2018-03-28T10:40:27.365Z,95016.76
2018-03-28T10:42:54.925Z,95025.95
2018-03-28T10:45:22.456Z,95012.77
2018-03-28T10:47:49.978Z,95010.31
2018-03-28T10:50:17.500Z,95005.41
2018-03-28T10:52:45.027Z,95005.59
2018-03-28T10:55:12.579Z,95004.98
2018-03-28T10:57:40.107Z,95011.14
2018-03-28T11:00:08.012Z,95006.66
2018-03-28T11:02:35.539Z,94994.70
2018-03-28T11:05:03.058Z,94990.04
2018-03-28T11:07:30.592Z,94988.95
2018-03-28T11:09:58.124Z,94991.13
2018-03-28T11:12:25.692Z,94982.53
2018-03-28T11:14:53.217Z,94981.08
2018-03-28T11:17:20.739Z,94983.47
2018-03-28T11:19:48.264Z,94976.49
2018-03-28T11:22:15.800Z,94978.84
2018-03-28T11:24:43.351Z,94973.00
2018-03-28T11:27:10.880Z,94970.87
2018-03-28T11:29:38.406Z,94973.69
2018-03-28T11:32:05.949Z,94963.30
2018-03-28T11:34:33.486Z,94966.66
2018-03-28T11:37:01.003Z,94963.42
2018-03-28T11:39:28.527Z,94952.22
2018-03-28T11:41:56.044Z,94962.14
2018-03-28T11:44:23.563Z,94963.59
2018-03-28T11:46:51.079Z,94960.90
2018-03-28T11:49:18.616Z,94952.38
2018-03-28T11:51:46.167Z,94942.84
2018-03-28T11:54:13.691Z,94935.75
2018-03-28T11:56:41.234Z,94943.91
2018-03-28T11:59:08.762Z,94929.84
2018-03-28T12:01:36.307Z,94936.17
2018-03-28T12:04:03.855Z,94935.38
2018-03-28T12:06:31.382Z,94928.57
2018-03-28T12:08:58.907Z,94926.84
2018-03-28T12:11:26.427Z,94926.31
2018-03-28T12:13:53.972Z,94919.98
2018-03-28T12:16:21.786Z,94924.58
2018-03-28T12:18:49.307Z,94905.52
2018-03-28T12:21:16.839Z,94913.55
2018-03-28T12:23:44.361Z,94917.86
2018-03-28T12:26:11.970Z,94916.91
2018-03-28T12:28:39.505Z,94911.39
2018-03-28T12:31:07.047Z,94908.41
2018-03-28T12:33:34.566Z,94915.87
2018-03-28T12:36:02.091Z,94914.66
2018-03-28T12:38:29.617Z,94903.32
2018-03-28T12:40:57.140Z,94913.75
2018-03-28T12:43:24.682Z,94917.47
2018-03-28T12:45:52.259Z,94916.30
2018-03-28T12:48:19.748Z,94913.95
2018-03-28T12:50:47.271Z,94911.70
2018-03-28T12:53:14.834Z,94904.58
2018-03-28T12:55:42.357Z,94899.89
2018-03-28T12:58:09.892Z,94898.35
2018-03-28T13:00:37.438Z,94897.17
2018-03-28T13:03:04.956Z,94891.59
2018-03-28T13:05:32.476Z,94888.19
2018-03-28T13:08:00.027Z,94887.21
2018-03-28T13:10:27.551Z,94888.98
2018-03-28T13:12:55.091Z,94883.48
2018-03-28T13:15:22.616Z,94860.62
2018-03-28T13:17:50.131Z,94879.39
2018-03-28T13:20:17.656Z,94877.06
2018-03-28T13:22:45.192Z,94879.05
2018-03-28T13:25:12.754Z,94871.89
2018-03-28T13:27:40.271Z,94864.85
2018-03-28T13:30:07.918Z,94873.16
2018-03-28T13:32:35.440Z,94861.72
2018-03-28T13:35:02.963Z,94869.32
2018-03-28T13:37:30.482Z,94871.59
2018-03-28T13:39:57.999Z,94867.06
2018-03-28T13:42:25.546Z,94872.48
2018-03-28T13:44:53.067Z,94858.09
2018-03-28T13:47:20.588Z,94863.19
2018-03-28T13:49:48.116Z,94849.22
2018-03-28T13:52:16.422Z,94854.92
2018-03-28T13:54:43.976Z,94862.31
2018-03-28T13:57:11.494Z,94871.61
2018-03-28T13:59:39.038Z,94865.91
2018-03-28T14:02:06.558Z,94877.12
2018-03-28T14:04:34.083Z,94872.66
2018-03-28T14:07:01.643Z,94877.72
2018-03-28T14:09:29.186Z,94875.24
2018-03-28T14:11:56.708Z,94862.48
2018-03-28T14:14:24.222Z,94863.92
2018-03-28T14:16:51.746Z,94861.06
2018-03-28T14:19:19.304Z,94859.86
2018-03-28T14:21:46.906Z,94859.45
2018-03-28T14:24:14.390Z,94847.52
2018-03-28T14:26:41.911Z,94857.80
2018-03-28T14:29:09.444Z,94858.19
2018-03-28T14:31:36.998Z,94853.12
2018-03-28T14:34:04.576Z,94855.31
2018-03-28T14:36:32.095Z,94857.54
2018-03-28T14:38:59.615Z,94858.42
2018-03-28T14:41:27.134Z,94854.13
2018-03-28T14:43:54.677Z,94864.31
2018-03-28T14:46:22.196Z,94855.87
2018-03-28T14:48:50.042Z,94841.48
2018-03-28T14:51:17.559Z,94855.82
2018-03-28T14:53:45.107Z,94859.09
2018-03-28T14:56:12.654Z,94851.18
2018-03-28T14:58:40.238Z,94852.48
2018-03-28T15:01:07.779Z,94861.91
2018-03-28T15:03:35.314Z,94856.30
2018-03-28T15:06:02.839Z,94859.50
2018-03-28T15:08:30.356Z,94862.30
2018-03-28T15:10:57.883Z,94860.87
2018-03-28T15:13:25.424Z,94860.16
2018-03-28T15:15:53.658Z,94860.64
2018-03-28T15:18:25.125Z,94858.39
2018-03-28T15:20:52.724Z,94850.64
2018-03-28T15:23:20.242Z,94838.58
2018-03-28T15:25:47.763Z,94861.84
2018-03-28T15:28:15.282Z,94855.37
2018-03-28T15:30:42.834Z,94866.48
2018-03-28T15:33:10.367Z,94871.55
2018-03-28T15:35:37.906Z,94865.95
2018-03-28T15:38:05.475Z,94862.79
2018-03-28T15:40:33.003Z,94861.16
2018-03-28T15:43:00.568Z,94836.88
2018-03-28T15:45:28.120Z,94860.58
2018-03-28T15:47:55.636Z,94856.41
2018-03-28T15:50:23.169Z,94863.06
2018-03-28T15:52:50.685Z,94861.41
2018-03-28T15:55:18.219Z,94846.20
2018-03-28T15:57:45.782Z,94859.16
2018-03-28T16:00:13.404Z,94860.78
2018-03-28T16:02:40.962Z,94857.67
2018-03-28T16:05:08.491Z,94857.94
2018-03-28T16:07:36.038Z,94816.73
2018-03-28T16:10:03.562Z,94858.13
2018-03-28T16:12:31.083Z,94856.37
2018-03-28T16:14:58.605Z,94861.31
2018-03-28T16:17:26.143Z,94859.09
2018-03-28T16:19:53.673Z,94858.85
2018-03-28T16:22:21.198Z,94876.49
2018-03-28T16:24:48.743Z,94872.09
2018-03-28T16:27:16.280Z,94874.48
2018-03-28T16:29:43.815Z,94874.17
2018-03-28T16:32:11.392Z,94877.77
2018-03-28T16:34:39.318Z,94888.94
2018-03-28T16:37:06.880Z,94888.19
2018-03-28T16:39:34.413Z,94881.94
2018-03-28T16:42:02.267Z,94885.28
2018-03-28T16:44:29.790Z,94891.59
2018-03-28T16:46:57.355Z,94888.58
2018-03-28T16:49:24.887Z,94888.42
2018-03-28T16:51:52.467Z,94890.88
2018-03-28T16:54:19.983Z,94889.02
2018-03-28T16:56:47.516Z,94885.92
2018-03-28T16:59:15.046Z,94893.63
2018-03-28T17:01:42.594Z,94890.57
2018-03-28T17:04:10.112Z,94898.67
2018-03-28T17:06:37.627Z,94896.05
2018-03-28T17:09:06.063Z,94896.09
2018-03-28T17:11:33.619Z,94897.11
2018-03-28T17:14:01.222Z,94900.37
2018-03-28T17:16:28.714Z,94908.46
2018-03-28T17:18:56.260Z,94911.63
2018-03-28T17:21:23.882Z,94911.16
2018-03-28T17:23:51.412Z,94915.98
2018-03-28T17:26:18.928Z,94916.44
2018-03-28T17:28:46.491Z,94914.09
2018-03-28T17:31:14.044Z,94919.44
2018-03-28T17:33:41.565Z,94927.26
2018-03-28T17:36:09.090Z,94921.96
2018-03-28T17:38:36.639Z,94926.76
2018-03-28T17:41:04.162Z,94931.35
2018-03-28T17:43:31.695Z,94930.94
2018-03-28T17:45:59.226Z,94936.57
2018-03-28T17:48:26.747Z,94936.55
2018-03-28T17:50:54.263Z,94936.20
2018-03-28T17:53:21.816Z,94930.41
2018-03-28T17:55:49.370Z,94953.67
2018-03-28T17:58:16.909Z,94960.20
2018-03-28T18:00:44.450Z,94964.89
2018-03-28T18:03:11.968Z,94952.04
2018-03-28T18:05:39.486Z,94964.39
2018-03-28T18:08:07.039Z,94963.10
2018-03-28T18:10:34.559Z,94960.55
2018-03-28T18:13:02.077Z,94963.66
2018-03-28T18:15:29.632Z,94976.69
2018-03-28T18:17:57.151Z,94969.56
2018-03-28T18:20:24.671Z,94969.41
2018-03-28T18:22:52.219Z,94971.36
2018-03-28T18:25:19.748Z,94976.23
2018-03-28T18:27:47.263Z,94978.70
2018-03-28T18:30:14.827Z,94978.09
2018-03-28T18:32:42.354Z,94982.67
2018-03-28T18:35:09.926Z,94980.59
2018-03-28T18:37:37.427Z,94971.97
2018-03-28T18:40:04.948Z,94987.41
2018-03-28T18:42:33.275Z,94989.16
2018-03-28T18:45:00.797Z,94986.25
2018-03-28T18:47:28.326Z,94995.35
2018-03-28T18:49:55.846Z,94990.73
2018-03-28T18:52:23.369Z,94990.78
2018-03-28T18:54:50.903Z,94998.11
2018-03-28T18:57:18.495Z,95000.60
2018-03-28T18:59:46.039Z,95000.75
2018-03-28T19:02:13.851Z,95000.40
2018-03-28T19:04:41.415Z,95004.57
2018-03-28T19:07:08.978Z,95000.00
2018-03-28T19:09:36.599Z,95010.53
2018-03-28T19:12:04.189Z,95009.95
2018-03-28T19:14:31.765Z,95007.64
2018-03-28T19:16:59.331Z,95014.73
2018-03-28T19:19:26.927Z,95018.61
2018-03-28T19:21:54.463Z,95017.73
2018-03-28T19:24:21.998Z,95024.63
2018-03-28T19:26:49.534Z,95007.80
2018-03-28T19:29:17.059Z,95020.87
2018-03-28T19:31:44.673Z,95016.94
2018-03-28T19:34:12.211Z,95016.30
2018-03-28T19:36:39.775Z,95011.19
2018-03-28T19:39:07.355Z,95013.78
2018-03-28T19:41:34.915Z,95015.55
2018-03-28T19:44:02.505Z,95020.55
2018-03-28T19:46:30.057Z,95012.30
2018-03-28T19:48:57.626Z,95008.28
2018-03-28T19:51:25.161Z,95009.14
2018-03-28T19:53:53.594Z,94984.28
2018-03-28T19:56:21.167Z,94997.91
2018-03-28T19:58:48.722Z,94984.45
2018-03-28T20:01:16.282Z,94995.27
2018-03-28T20:03:43.839Z,94991.63
2018-03-28T20:06:11.389Z,94984.95
2018-03-28T20:08:38.975Z,95002.75
2018-03-28T20:11:06.511Z,95001.83
2018-03-28T20:13:34.061Z,95001.13
2018-03-28T20:16:01.599Z,94996.94
2018-03-28T20:18:29.152Z,94999.80
2018-03-28T20:20:56.711Z,94999.14
2018-03-28T20:23:24.235Z,94994.56
2018-03-28T20:25:51.768Z,94989.36
2018-03-28T20:28:19.327Z,94992.69
2018-03-28T20:30:47.123Z,94994.36
2018-03-28T20:33:14.649Z,94996.19
2018-03-28T20:35:42.195Z,95001.55
2018-03-28T20:38:09.945Z,94992.19
2018-03-28T20:40:37.470Z,94998.05
2018-03-28T20:43:05.070Z,95007.58
2018-03-28T20:45:32.587Z,94998.53
2018-03-28T20:48:00.135Z,94994.73
2018-03-28T20:50:27.660Z,94992.06
2018-03-28T20:52:55.180Z,94986.24
2018-03-28T20:55:22.698Z,94989.17
2018-03-28T20:57:50.243Z,94993.66
2018-03-28T21:00:17.829Z,94990.64
2018-03-28T21:02:45.355Z,94991.30
2018-03-28T21:05:12.890Z,94986.71
2018-03-28T21:07:44.289Z,94991.77
2018-03-28T21:10:11.843Z,94991.51
2018-03-28T21:12:39.403Z,94980.81
2018-03-28T21:15:06.942Z,94989.77
2018-03-28T21:17:34.483Z,94990.47
2018-03-28T21:20:02.784Z,94989.92
2018-03-28T21:22:30.307Z,94983.08
2018-03-28T21:24:57.850Z,94983.77
2018-03-28T21:27:25.711Z,94980.27
2018-03-28T21:29:53.243Z,94977.25
2018-03-28T21:32:20.777Z,94994.37
2018-03-28T21:34:48.292Z,94972.30
2018-03-28T21:37:15.847Z,94971.98
2018-03-28T21:39:43.394Z,94966.00
2018-03-28T21:42:10.929Z,94965.72
2018-03-28T21:44:38.462Z,94963.22
2018-03-28T21:47:06.002Z,94959.94
2018-03-28T21:49:33.812Z,94959.55
2018-03-28T21:52:01.330Z,94948.84
2018-03-28T21:54:28.838Z,94944.88
2018-03-28T21:56:56.356Z,94952.66
2018-03-28T21:59:23.870Z,94956.92
2018-03-28T22:01:51.451Z,94956.25
2018-03-28T22:04:18.971Z,94951.05
2018-03-28T22:06:46.876Z,94943.16
2018-03-28T22:09:14.398Z,94949.02
2018-03-28T22:11:41.914Z,94950.56
2018-03-28T22:14:09.459Z,94955.81
2018-03-28T22:16:36.976Z,94955.38
2018-03-28T22:19:04.759Z,94949.88
2018-03-28T22:21:32.281Z,94960.84
2018-03-28T22:23:59.799Z,94951.88
2018-03-28T22:26:27.352Z,94958.00
2018-03-28T22:28:55.677Z,94963.58
2018-03-28T22:31:23.224Z,94963.44
2018-03-28T22:33:50.746Z,94967.11
2018-03-28T22:36:18.268Z,94971.95
2018-03-28T22:38:45.791Z,94978.79
2018-03-28T22:41:13.326Z,94964.08
2018-03-28T22:43:40.883Z,94966.88
2018-03-28T22:46:08.414Z,94962.87
2018-03-28T22:48:35.995Z,94960.74
2018-03-28T22:51:03.518Z,94965.31
2018-03-28T22:53:31.034Z,94959.98
2018-03-28T22:55:58.848Z,94962.50
2018-03-28T22:58:26.386Z,94960.04
2018-03-28T23:00:55.207Z,94950.52
2018-03-28T23:03:22.966Z,94960.18
2018-03-28T23:05:50.495Z,94961.08
2018-03-28T23:08:18.066Z,94964.21
2018-03-28T23:10:46.408Z,94961.52
2018-03-28T23:13:14.035Z,94959.83
2018-03-28T23:15:41.574Z,94965.69
2018-03-28T23:18:09.104Z,94969.86
2018-03-28T23:20:37.354Z,94969.47
2018-03-28T23:23:04.906Z,94970.86
2018-03-28T23:25:32.459Z,94977.80
2018-03-28T23:27:59.999Z,94988.40
2018-03-28T23:30:27.559Z,94995.90
2018-03-28T23:32:55.080Z,95000.84
2018-03-28T23:35:22.650Z,94998.42
2018-03-28T23:37:50.184Z,95001.54
2018-03-28T23:40:17.707Z,94995.04
2018-03-28T23:42:45.475Z,94989.82
2018-03-28T23:45:12.995Z,94989.20
2018-03-28T23:47:40.514Z,94986.20
2018-03-28T23:50:08.064Z,94984.70
2018-03-28T23:52:37.630Z,94984.32
2018-03-28T23:55:05.163Z,94988.02
2018-03-28T23:57:32.680Z,94989.35
